Time;durP1;ratioP1;P1;durP2;ratioP2;P2;SDS_P1;SDS_P2;PMS_P1;PMS_P2;Temp;Humidity;BMP_temperature;BMP_pressure;BME280_temperature;BME280_humidity;BME280_pressure;Samples;Min_cycle;Max_cycle;Signal;HPM_P1;HPM_P2
2021/03/12 00:01:01;;;;;;;84.40;48.90;;;;;;;2.29;83.81;98492.50;124586;1109;104169;-79
2021/03/12 00:03:31;;;;;;;82.27;50.20;;;;;;;2.28;83.70;98491.66;124595;1105;102467;-80
2021/03/12 00:06:03;;;;;;;81.40;50.30;;;;;;;2.27;83.81;98482.25;124513;1109;104194;-80
2021/03/12 00:08:34;;;;;;;83.67;49.97;;;;;;;2.26;83.81;98493.43;124616;1105;104230;-79
2021/03/12 00:11:01;;;;;;;84.77;50.00;;;;;;;2.23;84.09;98487.53;124580;1109;104217;-79
2021/03/12 00:13:29;;;;;;;83.03;48.27;;;;;;;2.22;84.03;98484.11;124548;1109;104268;-79
2021/03/12 00:15:56;;;;;;;79.33;47.70;;;;;;;2.20;84.01;98475.59;124573;1105;104140;-79
2021/03/12 00:18:33;;;;;;;81.37;48.83;;;;;;;2.19;83.64;98465.36;124495;1109;104733;-79
2021/03/12 00:21:02;;;;;;;81.10;48.57;;;;;;;2.19;83.77;98473.91;124548;1106;104155;-79
2021/03/12 00:23:30;;;;;;;86.07;50.90;;;;;;;2.18;83.85;98464.52;124574;1106;104365;-78
2021/03/12 00:25:57;;;;;;;86.57;50.60;;;;;;;2.19;83.80;98466.20;124568;1109;104137;-81
2021/03/12 00:28:25;;;;;;;85.13;50.13;;;;;;;2.19;83.79;98461.05;124615;1106;104172;-79
2021/03/12 00:30:52;;;;;;;82.90;50.13;;;;;;;2.18;83.96;98461.94;124546;1105;104777;-79
2021/03/12 00:33:25;;;;;;;79.13;47.23;;;;;;;2.19;84.36;98457.64;124523;1106;104175;-79
2021/03/12 00:35:53;;;;;;;78.10;46.03;;;;;;;2.19;84.04;98457.64;124562;1106;104117;-80
2021/03/12 00:38:21;;;;;;;87.60;51.07;;;;;;;2.18;84.47;98459.37;124588;1105;104213;-80
2021/03/12 00:40:54;;;;;;;88.07;51.87;;;;;;;2.19;84.04;98461.05;124583;1108;104208;-79
2021/03/12 00:43:23;;;;;;;90.67;53.17;;;;;;;2.19;84.16;98457.64;124522;1105;104290;-80
2021/03/12 00:45:57;;;;;;;88.20;52.70;;;;;;;2.18;83.92;98446.51;124556;1105;104210;-80
2021/03/12 00:48:25;;;;;;;88.00;51.27;;;;;;;2.19;84.13;98457.64;124598;1106;104217;-80
2021/03/12 00:50:53;;;;;;;78.83;46.47;;;;;;;2.18;84.00;98446.51;124614;1109;104127;-80
2021/03/12 00:53:26;;;;;;;79.83;46.40;;;;;;;2.18;83.87;98451.66;124542;1109;104258;-80
2021/03/12 00:55:53;;;;;;;78.13;47.13;;;;;;;2.21;84.02;98458.44;124559;1105;104166;-80
2021/03/12 00:58:22;;;;;;;77.13;45.83;;;;;;;2.21;83.97;98472.14;124539;1106;104165;-80
2021/03/12 01:00:54;;;;;;;81.30;48.33;;;;;;;2.23;83.89;98469.52;124590;1105;104085;-79
2021/03/12 01:03:27;;;;;;;85.37;51.00;;;;;;;2.23;84.28;98469.52;124630;1109;105387;-80
2021/03/12 01:05:59;;;;;;;82.37;48.60;;;;;;;2.26;83.88;98466.86;124553;1106;104188;-80
2021/03/12 01:08:32;;;;;;;80.63;47.13;;;;;;;2.28;83.72;98454.80;124563;1109;104385;-80
2021/03/12 01:10:59;;;;;;;69.63;42.73;;;;;;;2.29;83.97;98462.47;124543;1109;104168;-80
2021/03/12 01:13:28;;;;;;;85.17;50.97;;;;;;;2.31;84.14;98462.43;124527;1105;103012;-80
2021/03/12 01:15:56;;;;;;;87.50;51.17;;;;;;;2.33;83.89;98456.35;124549;1105;104335;-80
2021/03/12 01:18:28;;;;;;;81.00;48.47;;;;;;;2.35;83.61;98444.31;124514;1109;104137;-80
2021/03/12 01:20:58;;;;;;;72.17;44.43;;;;;;;2.36;83.84;98432.30;124500;1109;101776;-80
2021/03/12 01:23:25;;;;;;;74.33;45.93;;;;;;;2.40;83.83;98432.16;124527;1105;104252;-79
2021/03/12 01:25:53;;;;;;;84.43;48.60;;;;;;;2.42;83.64;98427.81;124565;1109;102482;-80
2021/03/12 01:28:23;;;;;;;85.43;50.67;;;;;;;2.46;83.25;98440.59;124593;1105;102125;-79
2021/03/12 01:30:54;;;;;;;82.13;48.17;;;;;;;2.47;83.86;98432.82;124628;1105;104146;-80
2021/03/12 01:33:27;;;;;;;79.33;47.20;;;;;;;2.51;83.74;98443.86;124600;1105;102738;-80
2021/03/12 01:35:55;;;;;;;80.97;46.90;;;;;;;2.53;83.95;98447.27;124573;1106;103021;-80
2021/03/12 01:38:22;;;;;;;73.20;44.57;;;;;;;2.57;84.07;98449.70;124505;1106;104207;-80
2021/03/12 01:40:49;;;;;;;67.87;40.97;;;;;;;2.60;84.03;98443.61;124546;1109;103797;-80
2021/03/12 01:43:18;;;;;;;75.27;44.87;;;;;;;2.63;83.35;98440.95;124547;1106;104194;-79
2021/03/12 01:45:50;;;;;;;70.40;42.80;;;;;;;2.67;83.62;98438.23;124574;1105;104272;-80
2021/03/12 01:48:24;;;;;;;65.77;38.93;;;;;;;2.71;83.95;98444.16;124540;1109;104179;-80
2021/03/12 01:50:55;;;;;;;61.93;40.00;;;;;;;2.76;83.80;98450.01;124545;1106;104290;-80
2021/03/12 01:53:23;;;;;;;65.10;39.17;;;;;;;2.81;84.00;98448.13;124543;1106;104223;-79
2021/03/12 01:55:53;;;;;;;64.03;39.87;;;;;;;2.86;83.74;98445.41;124529;1105;104143;-80
2021/03/12 01:58:21;;;;;;;63.47;40.90;;;;;;;2.91;83.57;98446.14;124581;1105;104229;-80
2021/03/12 02:00:52;;;;;;;59.70;37.97;;;;;;;2.98;83.33;98442.48;124782;1105;104187;-80
2021/03/12 02:03:33;;;;;;;61.43;37.17;;;;;;;3.03;83.36;98446.59;124562;1106;104192;-80
2021/03/12 02:06:10;;;;;;;52.70;33.67;;;;;;;3.08;83.48;98448.20;124578;1106;104280;-79
2021/03/12 02:08:38;;;;;;;51.87;32.67;;;;;;;3.10;83.59;98447.27;124759;1105;104235;-80
2021/03/12 02:11:19;;;;;;;49.53;32.23;;;;;;;3.14;83.53;98435.97;124631;1106;104127;-80
2021/03/12 02:14:05;;;;;;;53.40;33.50;;;;;;;3.16;83.01;98425.62;124593;1109;104223;-80
2021/03/12 02:16:45;;;;;;;54.10;35.57;;;;;;;3.18;82.46;98418.68;124573;1109;104176;-79
2021/03/12 02:19:50;;;;;;;57.23;35.93;;;;;;;3.20;82.99;98422.05;124623;1105;104213;-80
2021/03/12 02:22:21;;;;;;;53.60;33.03;;;;;;;3.23;83.18;98424.52;124609;1106;104999;-79
2021/03/12 02:24:55;;;;;;;57.90;35.93;;;;;;;3.26;82.93;98432.18;124619;1105;104233;-79
2021/03/12 02:27:36;;;;;;;52.43;31.87;;;;;;;3.27;82.93;98436.44;124547;1106;104197;-80
2021/03/12 02:30:07;;;;;;;49.10;31.63;;;;;;;3.30;83.37;98423.45;124583;1106;105729;-80
2021/03/12 02:32:40;;;;;;;52.00;32.40;;;;;;;3.35;83.01;98437.02;124569;1106;104229;-80
2021/03/12 02:35:28;;;;;;;53.40;33.83;;;;;;;3.38;82.68;98434.34;124565;1109;104179;-80
2021/03/12 02:38:06;;;;;;;50.37;31.37;;;;;;;3.39;82.37;98425.72;124675;1105;104210;-80
2021/03/12 02:40:35;;;;;;;48.57;31.63;;;;;;;3.41;82.65;98447.16;124630;1105;104169;-79
2021/03/12 02:43:06;;;;;;;47.83;30.63;;;;;;;3.43;82.40;98449.69;124562;1106;105000;-79
2021/03/12 02:45:34;;;;;;;55.00;33.87;;;;;;;3.45;82.29;98438.44;124614;1105;104214;-80
2021/03/12 02:48:09;;;;;;;52.83;33.47;;;;;;;3.48;82.18;98422.02;124634;1105;102587;-80
2021/03/12 02:50:40;;;;;;;49.67;31.80;;;;;;;3.48;82.29;98433.17;124612;1105;103999;-80
2021/03/12 02:53:12;;;;;;;53.37;34.23;;;;;;;3.50;81.88;98413.34;124628;1105;104111;-79
2021/03/12 02:55:40;;;;;;;52.20;32.45;;;;;;;3.51;82.05;98414.19;124637;1109;104192;-80
2021/03/12 02:58:13;;;;;;;58.00;37.10;;;;;;;3.51;81.96;98424.49;124568;1106;104195;-80
2021/03/12 03:00:41;;;;;;;57.00;37.07;;;;;;;3.51;82.02;98429.65;124541;1106;104318;-80
2021/03/12 03:03:34;;;;;;;56.97;37.50;;;;;;;3.50;81.64;98428.80;124603;1106;104174;-79
2021/03/12 03:06:19;;;;;;;52.07;33.73;;;;;;;3.49;81.22;98410.81;124753;1105;104645;-79
2021/03/12 03:08:47;;;;;;;57.20;36.70;;;;;;;3.48;81.60;98425.44;124740;1105;104216;-79
2021/03/12 03:11:15;;;;;;;56.23;35.47;;;;;;;3.45;81.34;98441.01;124579;1109;104156;-79
2021/03/12 03:13:58;;;;;;;52.87;34.97;;;;;;;3.45;81.08;98422.13;124581;1105;104203;-79
2021/03/12 03:16:30;;;;;;;56.70;34.07;;;;;;;3.44;81.72;98428.17;124477;1109;104124;-79
2021/03/12 03:18:59;;;;;;;50.10;33.13;;;;;;;3.42;81.38;98433.38;124609;1105;104143;-78
2021/03/12 03:21:28;;;;;;;55.27;34.63;;;;;;;3.41;81.80;98451.44;124505;1108;104204;-79
2021/03/12 03:23:55;;;;;;;55.83;33.43;;;;;;;3.40;81.54;98449.76;124535;1109;104190;-79
2021/03/12 03:26:24;;;;;;;53.73;34.47;;;;;;;3.38;81.48;98454.12;124538;1108;105838;-79
2021/03/12 03:28:53;;;;;;;47.33;31.03;;;;;;;3.38;81.45;98461.84;124495;1109;103967;-79
2021/03/12 03:31:22;;;;;;;44.73;29.30;;;;;;;3.35;80.95;98457.64;124585;1109;104123;-79
2021/03/12 03:33:50;;;;;;;48.87;31.00;;;;;;;3.31;81.08;98454.33;124536;1106;104111;-79
2021/03/12 03:36:18;;;;;;;47.63;30.50;;;;;;;3.27;81.08;98452.73;124505;1109;104197;-79
2021/03/12 03:38:45;;;;;;;53.05;33.60;;;;;;;3.24;81.28;98459.73;124547;1106;105588;-79
2021/03/12 03:41:15;;;;;;;49.13;32.07;;;;;;;3.21;80.88;98464.95;124490;1105;104374;-79
2021/03/12 03:43:47;;;;;;;49.57;31.73;;;;;;;3.19;81.08;98471.89;124593;1109;104185;-78
2021/03/12 03:46:20;;;;;;;51.73;32.53;;;;;;;3.16;81.26;98459.95;124524;1105;104147;-79
2021/03/12 03:48:50;;;;;;;51.17;32.53;;;;;;;3.13;81.29;98459.20;124539;1106;104111;-79
2021/03/12 03:51:28;;;;;;;48.17;31.50;;;;;;;3.11;81.31;98460.98;124590;1106;104153;-78
2021/03/12 03:53:56;;;;;;;51.90;31.13;;;;;;;3.07;81.08;98454.25;124550;1105;104817;-79
2021/03/12 03:56:23;;;;;;;54.03;31.90;;;;;;;3.03;81.15;98456.89;124557;1109;104235;-79
2021/03/12 03:58:52;;;;;;;54.80;32.70;;;;;;;3.01;81.31;98448.38;124573;1106;104165;-79
2021/03/12 04:01:21;;;;;;;56.37;33.93;;;;;;;3.01;81.59;98461.25;124564;1105;104178;-79
2021/03/12 04:03:53;;;;;;;53.70;32.90;;;;;;;2.98;81.44;98466.50;124569;1106;104248;-79
2021/03/12 04:06:22;;;;;;;51.07;31.87;;;;;;;2.97;81.06;98461.39;124504;1109;104171;-79
2021/03/12 04:08:50;;;;;;;51.43;32.40;;;;;;;2.94;81.31;98466.64;124511;1106;104197;-79
2021/03/12 04:11:17;;;;;;;56.03;35.37;;;;;;;2.91;81.35;98470.16;124520;1106;104395;-79
2021/03/12 04:13:48;;;;;;;50.87;31.13;;;;;;;2.92;81.28;98476.15;124494;1109;103427;-79
2021/03/12 04:16:18;;;;;;;60.67;34.53;;;;;;;2.90;81.36;98476.20;124566;1106;104283;-79
2021/03/12 04:18:48;;;;;;;50.97;31.80;;;;;;;2.90;81.33;98483.92;124496;1105;104168;-79
2021/03/12 04:21:16;;;;;;;51.23;32.33;;;;;;;2.89;81.40;98487.39;124543;1106;104184;-79
2021/03/12 04:23:45;;;;;;;58.77;36.00;;;;;;;2.88;81.39;98488.28;124509;1109;104143;-79
2021/03/12 04:26:13;;;;;;;57.20;34.87;;;;;;;2.90;81.52;98496.80;124549;1109;104214;-79
2021/03/12 04:28:41;;;;;;;54.87;33.70;;;;;;;2.90;81.52;98501.10;124546;1109;104335;-79
2021/03/12 04:31:09;;;;;;;54.53;35.80;;;;;;;2.91;81.54;98495.91;124501;1109;104185;-79
2021/03/12 04:33:38;;;;;;;53.43;33.07;;;;;;;2.91;81.70;98505.36;124565;1109;104194;-79
2021/03/12 04:36:06;;;;;;;54.17;32.33;;;;;;;2.91;81.59;98511.36;124721;1105;104252;-79
2021/03/12 04:38:36;;;;;;;54.00;33.90;;;;;;;2.91;81.53;98508.78;124562;1108;104287;-79
2021/03/12 04:41:04;;;;;;;58.47;35.47;;;;;;;2.94;81.76;98518.98;124555;1109;104242;-79
2021/03/12 04:43:33;;;;;;;56.90;36.13;;;;;;;2.96;81.76;98509.48;124514;1105;104457;-78
2021/03/12 04:46:02;;;;;;;56.23;34.87;;;;;;;2.98;81.64;98515.42;124555;1109;104271;-79
2021/03/12 04:48:39;;;;;;;55.80;32.83;;;;;;;3.00;81.63;98513.65;124633;1105;104143;-78
2021/03/12 04:51:12;;;;;;;57.33;34.70;;;;;;;3.03;81.66;98504.98;124527;1106;101658;-79
2021/03/12 04:53:41;;;;;;;53.00;32.13;;;;;;;3.06;81.48;98506.66;124565;1109;104368;-79
2021/03/12 04:56:09;;;;;;;55.53;34.17;;;;;;;3.08;81.96;98512.59;124491;1105;104335;-78
2021/03/12 04:58:38;;;;;;;51.30;30.50;;;;;;;3.11;81.67;98504.78;124621;1105;104059;-79
2021/03/12 05:01:10;;;;;;;52.80;35.50;;;;;;;3.14;81.82;98512.41;124567;1106;104614;-79
2021/03/12 05:03:39;;;;;;;55.67;34.13;;;;;;;3.16;81.79;98506.31;124567;1109;104197;-79
2021/03/12 05:06:08;;;;;;;55.63;34.67;;;;;;;3.20;81.51;98496.75;124501;1109;104114;-79
2021/03/12 05:08:38;;;;;;;54.87;32.43;;;;;;;3.24;81.75;98500.95;124543;1109;104396;-79
2021/03/12 05:11:19;;;;;;;50.47;31.27;;;;;;;3.29;81.51;98509.38;124566;1106;104458;-78
2021/03/12 05:13:55;;;;;;;53.10;33.93;;;;;;;3.33;81.27;98516.95;124528;1105;104107;-78
2021/03/12 05:16:27;;;;;;;54.47;32.17;;;;;;;3.38;81.48;98516.80;124633;1105;102994;-79
2021/03/12 05:18:55;;;;;;;49.73;30.63;;;;;;;3.43;81.40;98514.11;124599;1105;104204;-79
2021/03/12 05:21:22;;;;;;;51.68;32.03;;;;;;;3.47;81.44;98526.84;124491;1106;104335;-79
2021/03/12 05:23:50;;;;;;;46.07;29.17;;;;;;;3.49;81.53;98527.64;124505;1109;104223;-78
2021/03/12 05:26:17;;;;;;;46.77;30.60;;;;;;;3.51;80.99;98518.12;124568;1109;104114;-79
2021/03/12 05:28:45;;;;;;;48.60;28.53;;;;;;;3.52;81.06;98529.27;124540;1109;104162;-79
2021/03/12 05:31:12;;;;;;;45.35;28.77;;;;;;;3.52;81.12;98519.80;124495;1109;104214;-79
2021/03/12 05:33:39;;;;;;;43.43;27.90;;;;;;;3.54;80.67;98528.33;124623;1105;104287;-79
2021/03/12 05:36:11;;;;;;;46.43;29.77;;;;;;;3.56;80.99;98538.59;124543;1105;104146;-79
2021/03/12 05:38:38;;;;;;;47.90;31.23;;;;;;;3.58;80.73;98532.49;124533;1105;104298;-78
2021/03/12 05:41:07;;;;;;;43.93;29.20;;;;;;;3.61;80.88;98536.73;124517;1109;104201;-79
2021/03/12 05:43:35;;;;;;;44.35;28.45;;;;;;;3.62;80.60;98546.16;124518;1109;104126;-79
2021/03/12 05:46:03;;;;;;;44.60;27.93;;;;;;;3.67;80.92;98554.58;124493;1109;104171;-78
2021/03/12 05:48:32;;;;;;;40.97;26.13;;;;;;;3.71;80.92;98555.32;124532;1106;103915;-78
2021/03/12 05:51:00;;;;;;;43.73;27.47;;;;;;;3.72;80.18;98551.84;124521;1108;104197;-78
2021/03/12 05:53:29;;;;;;;45.77;28.93;;;;;;;3.76;80.40;98558.59;124586;1105;104172;-79
2021/03/12 05:55:57;;;;;;;40.83;26.77;;;;;;;3.78;80.42;98556.84;124630;1106;104215;-79
2021/03/12 05:58:27;;;;;;;37.93;24.87;;;;;;;3.81;80.35;98562.73;124502;1105;104669;-79
2021/03/12 06:00:58;;;;;;;36.63;23.80;;;;;;;3.82;80.30;98561.84;124545;1106;104213;-79
2021/03/12 06:03:25;;;;;;;34.50;22.50;;;;;;;3.85;80.38;98558.31;124643;1105;104517;-79
2021/03/12 06:05:53;;;;;;;33.70;22.23;;;;;;;3.87;80.49;98549.63;124558;1106;104088;-78
2021/03/12 06:08:21;;;;;;;37.57;22.27;;;;;;;3.89;80.77;98549.58;124488;1109;104178;-79
2021/03/12 06:10:51;;;;;;;33.45;20.85;;;;;;;3.91;80.18;98548.63;124491;1109;104296;-79
2021/03/12 06:13:23;;;;;;;32.10;21.20;;;;;;;3.91;80.35;98537.47;124537;1109;104198;-79
2021/03/12 06:16:29;;;;;;;37.27;20.77;;;;;;;3.95;80.17;98554.56;124546;1106;104672;-79
2021/03/12 06:19:18;;;;;;;30.93;20.17;;;;;;;3.99;80.87;98556.14;124512;1106;104653;-79
2021/03/12 06:21:49;;;;;;;33.60;19.87;;;;;;;4.03;80.25;98568.04;124578;1109;104201;-79
2021/03/12 06:24:27;;;;;;;34.27;20.67;;;;;;;4.09;80.55;98578.15;124508;1105;104303;-79
2021/03/12 06:27:28;;;;;;;;;;;;;;;4.12;80.53;98583.20;124574;1105;104263;-79
2021/03/12 06:30:14;;;;;;;39.03;21.77;;;;;;;4.14;80.44;98581.45;124560;1105;104305;-78
2021/03/12 06:33:04;;;;;;;34.50;19.75;;;;;;;4.18;80.10;98602.83;124693;1105;104207;-78
2021/03/12 06:35:53;;;;;;;26.40;17.33;;;;;;;4.19;80.22;98610.52;124629;1105;104107;-79
2021/03/12 06:38:30;;;;;;;30.80;18.60;;;;;;;4.20;80.07;98612.20;124618;1105;104121;-79
2021/03/12 06:41:04;;;;;;;32.03;18.43;;;;;;;4.22;80.63;98610.41;124523;1106;104114;-78
2021/03/12 06:43:43;;;;;;;30.50;18.57;;;;;;;4.24;80.86;98603.45;124517;1105;104118;-78
2021/03/12 06:46:10;;;;;;;29.47;17.77;;;;;;;4.24;80.59;98597.45;124822;1105;104216;-79
2021/03/12 06:48:46;;;;;;;31.15;18.07;;;;;;;4.26;80.39;98626.63;124627;1105;104168;-79
2021/03/12 06:51:26;;;;;;;29.37;17.87;;;;;;;4.29;80.79;98605.03;124518;1105;104117;-80
2021/03/12 06:54:05;;;;;;;30.77;16.73;;;;;;;4.29;80.50;98617.94;124506;1105;104136;-79
2021/03/12 06:56:41;;;;;;;28.93;17.50;;;;;;;4.26;80.75;98605.98;124638;1105;104227;-79
2021/03/12 06:59:32;;;;;;;29.30;17.07;;;;;;;4.27;80.38;98617.15;124569;1105;104166;-79
2021/03/12 07:02:09;;;;;;;31.47;18.80;;;;;;;4.29;80.66;98610.20;124523;1109;104303;-79
2021/03/12 07:04:53;;;;;;;31.00;19.27;;;;;;;4.30;80.75;98617.05;124476;1107;104766;-79
2021/03/12 07:07:42;;;;;;;36.30;20.90;;;;;;;4.32;81.11;98621.29;124582;1106;104200;-80
2021/03/12 07:10:34;;;;;;;36.30;21.97;;;;;;;4.37;81.10;98623.70;124552;1106;104137;-80
2021/03/12 07:13:29;;;;;;;35.83;22.43;;;;;;;4.46;81.33;98623.39;124643;1105;104137;-79
2021/03/12 07:16:07;;;;;;;32.33;21.07;;;;;;;4.53;81.14;98638.64;124601;1105;104217;-80
2021/03/12 07:18:44;;;;;;;32.97;23.27;;;;;;;4.62;81.09;98634.89;124568;1105;104105;-79
2021/03/12 07:21:14;;;;;;;32.63;20.90;;;;;;;4.66;81.01;98638.21;124571;1109;104143;-79
2021/03/12 07:23:48;;;;;;;36.77;22.37;;;;;;;4.65;80.83;98645.11;124526;1105;104236;-79
2021/03/12 07:26:20;;;;;;;29.60;20.07;;;;;;;4.65;80.71;98650.28;124566;1105;104246;-80
2021/03/12 07:28:59;;;;;;;32.87;20.53;;;;;;;4.65;80.87;98649.44;124541;1109;104103;-80
2021/03/12 07:31:35;;;;;;;34.03;22.03;;;;;;;4.65;81.39;98649.44;124530;1109;104318;-80
2021/03/12 07:34:32;;;;;;;31.90;20.00;;;;;;;4.66;80.96;98664.88;124563;1105;104008;-79
2021/03/12 07:37:10;;;;;;;30.67;20.30;;;;;;;4.68;81.46;98655.37;124688;1105;104236;-79
2021/03/12 07:39:44;;;;;;;31.43;20.83;;;;;;;4.74;81.16;98662.89;124779;1105;104124;-79
2021/03/12 07:42:18;;;;;;;32.37;19.97;;;;;;;4.77;81.37;98664.53;124558;1106;104120;-79
2021/03/12 07:45:13;;;;;;;30.03;19.60;;;;;;;4.81;81.07;98666.95;124413;1106;104245;-80
2021/03/12 07:47:58;;;;;;;;;;;;;;;4.83;80.91;98665.15;124627;1105;104486;-79
2021/03/12 07:50:37;;;;;;;30.07;18.33;;;;;;;4.85;80.99;98672.88;124526;1106;104178;-80
2021/03/12 07:53:09;;;;;;;31.80;18.40;;;;;;;4.83;81.15;98670.31;124587;1105;104300;-79
2021/03/12 07:55:51;;;;;;;26.07;18.27;;;;;;;4.85;81.15;98676.30;124571;1107;103141;-80
2021/03/12 07:58:50;;;;;;;25.60;16.83;;;;;;;4.87;81.31;98675.41;124590;1106;104286;-79
2021/03/12 08:01:20;;;;;;;27.27;17.30;;;;;;;4.90;81.17;98686.47;124594;1106;104635;-79
2021/03/12 08:03:51;;;;;;;28.97;17.97;;;;;;;4.98;80.52;98686.20;124559;1105;104178;-79
2021/03/12 08:06:18;;;;;;;26.10;17.33;;;;;;;5.02;80.46;98682.60;124548;1106;104146;-79
2021/03/12 08:09:34;;;;;;;26.63;17.00;;;;;;;5.07;80.84;98688.48;124604;1106;104267;-78
2021/03/12 08:12:39;;;;;;;26.87;16.57;;;;;;;5.16;80.85;98680.39;124680;1105;104160;-79
2021/03/12 08:15:31;;;;;;;22.93;15.97;;;;;;;5.26;80.60;98694.69;124529;1106;104094;-79
2021/03/12 08:18:23;;;;;;;23.80;16.17;;;;;;;5.35;80.06;98690.92;124712;1106;104214;-79
2021/03/12 08:21:30;;;;;;;24.30;16.13;;;;;;;5.50;80.39;98697.28;124438;1109;103154;-79
2021/03/12 08:24:42;;;;;;;23.17;15.67;;;;;;;5.60;79.59;98709.00;124305;1109;102821;-79
2021/03/12 08:27:10;;;;;;;22.83;14.40;;;;;;;5.61;79.32;98710.69;124557;1106;104034;-79
2021/03/12 08:30:00;;;;;;;23.27;15.27;;;;;;;5.62;79.70;98714.95;124696;1105;104128;-79
2021/03/12 08:32:46;;;;;;;24.10;13.63;;;;;;;5.63;79.79;98719.23;124487;1106;104194;-79
2021/03/12 08:35:34;;;;;;;19.90;14.37;;;;;;;5.65;79.63;98707.92;124506;1109;104168;-79
2021/03/12 08:38:24;;;;;;;20.83;14.07;;;;;;;5.70;79.20;98728.44;124577;1105;104217;-79
2021/03/12 08:41:15;;;;;;;18.77;13.77;;;;;;;5.81;79.60;98723.72;124519;1105;104147;-79
2021/03/12 08:43:55;;;;;;;20.77;14.47;;;;;;;5.92;79.05;98731.94;124547;1106;104101;-79
2021/03/12 08:46:41;;;;;;;18.55;12.90;;;;;;;6.02;78.75;98729.86;124540;1105;104210;-79
2021/03/12 08:49:10;;;;;;;17.97;12.67;;;;;;;6.13;79.10;98732.06;124610;1105;104229;-80
2021/03/12 08:51:39;;;;;;;19.50;13.00;;;;;;;6.21;79.04;98724.83;124766;1106;104105;-79
2021/03/12 08:54:33;;;;;;;16.73;12.60;;;;;;;6.38;78.77;98734.53;124577;1105;104683;-79
2021/03/12 08:57:20;;;;;;;18.00;11.73;;;;;;;6.53;78.14;98720.98;124501;1109;104534;-79
2021/03/12 09:00:06;;;;;;;18.20;12.73;;;;;;;6.83;78.03;98731.86;124522;1106;104137;-80
2021/03/12 09:02:52;;;;;;;15.93;11.40;;;;;;;7.17;76.93;98736.45;124588;1105;104107;-79
2021/03/12 09:05:29;;;;;;;17.40;11.40;;;;;;;7.24;76.42;98735.31;124536;1109;104111;-80
2021/03/12 09:08:29;;;;;;;17.07;11.17;;;;;;;7.21;76.56;98733.69;124359;1106;104341;-80
2021/03/12 09:11:28;;;;;;;16.33;10.60;;;;;;;7.16;76.01;98755.52;124562;1106;104130;-80
2021/03/12 09:14:03;;;;;;;15.33;10.77;;;;;;;7.08;75.81;98763.63;124532;1105;104188;-80
2021/03/12 09:16:36;;;;;;;16.10;11.03;;;;;;;7.01;75.89;98761.36;124538;1105;104546;-80
2021/03/12 09:19:10;;;;;;;17.77;10.60;;;;;;;6.97;75.82;98765.80;124525;1108;104268;-79
2021/03/12 09:21:45;;;;;;;15.83;11.00;;;;;;;6.92;76.02;98768.59;124494;1105;104390;-80
2021/03/12 09:24:12;;;;;;;16.47;11.17;;;;;;;6.91;75.79;98766.06;124486;1108;104123;-79
2021/03/12 09:26:44;;;;;;;14.10;10.97;;;;;;;6.88;75.94;98776.56;124549;1109;104210;-80
2021/03/12 09:29:24;;;;;;;15.63;10.63;;;;;;;6.81;75.49;98778.54;124576;1105;103049;-80
2021/03/12 09:31:54;;;;;;;19.37;11.77;;;;;;;6.73;76.02;98775.42;124528;1109;104249;-78
2021/03/12 09:34:34;;;;;;;15.77;10.93;;;;;;;6.70;75.96;98772.13;124467;1105;104203;-79
2021/03/12 09:37:12;;;;;;;14.37;10.70;;;;;;;6.68;75.37;98773.94;124558;1105;104146;-79
2021/03/12 09:39:43;;;;;;;18.60;11.25;;;;;;;6.69;75.79;98780.80;124523;1108;104162;-79
2021/03/12 09:42:25;;;;;;;18.40;11.70;;;;;;;6.65;76.01;98782.67;124509;1105;104281;-79
2021/03/12 09:45:01;;;;;;;18.77;11.90;;;;;;;6.60;75.67;98784.58;124516;1109;104322;-79
2021/03/12 09:47:32;;;;;;;16.17;11.60;;;;;;;6.56;76.00;98783.86;124450;1106;104640;-79
2021/03/12 09:50:06;;;;;;;20.20;12.40;;;;;;;6.58;76.16;98794.16;124527;1106;104060;-79
2021/03/12 09:52:43;;;;;;;15.53;11.68;;;;;;;6.71;75.73;98781.58;124532;1105;104143;-79
2021/03/12 09:55:29;;;;;;;16.00;11.70;;;;;;;6.81;75.43;98795.84;124571;1105;104233;-79
2021/03/12 09:57:56;;;;;;;16.37;11.90;;;;;;;6.82;75.23;98792.34;124512;1109;104319;-79
2021/03/12 10:00:29;;;;;;;15.97;12.60;;;;;;;6.79;75.10;98797.65;124489;1109;104191;-79
2021/03/12 10:03:02;;;;;;;14.97;11.93;;;;;;;6.73;75.02;98787.54;124534;1106;104140;-79
2021/03/12 10:06:07;;;;;;;18.67;13.70;;;;;;;6.63;75.22;98798.25;124291;1109;104102;-79
2021/03/12 10:09:07;;;;;;;18.93;13.17;;;;;;;6.56;75.51;98811.52;124545;1105;104213;-79
2021/03/12 10:11:53;;;;;;;16.60;12.33;;;;;;;6.46;75.67;98821.36;124608;1106;104186;-79
2021/03/12 10:14:26;;;;;;;16.83;12.33;;;;;;;6.38;76.20;98813.06;124458;1106;104453;-79
2021/03/12 10:17:16;;;;;;;12.83;10.90;;;;;;;6.29;76.26;98816.02;124516;1109;104178;-79
2021/03/12 10:20:03;;;;;;;16.37;10.63;;;;;;;6.15;75.75;98824.28;124540;1106;104739;-79
2021/03/12 10:22:41;;;;;;;11.90;8.87;;;;;;;6.03;76.33;98835.08;124524;1106;104165;-79
2021/03/12 10:25:20;;;;;;;16.70;10.53;;;;;;;5.96;76.47;98833.62;124526;1105;104178;-78
2021/03/12 10:27:50;;;;;;;16.00;11.07;;;;;;;5.93;76.43;98826.81;124526;1106;104431;-79
2021/03/12 10:30:37;;;;;;;13.40;10.00;;;;;;;5.92;76.09;98835.45;124513;1105;104156;-78
2021/03/12 10:33:06;;;;;;;17.20;9.80;;;;;;;5.97;76.17;98843.91;124551;1105;104165;-80
2021/03/12 10:35:44;;;;;;;13.77;9.60;;;;;;;6.05;76.68;98852.23;124755;1106;104676;-79
2021/03/12 10:38:18;;;;;;;11.20;8.23;;;;;;;6.06;76.36;98859.09;124548;1105;102928;-79
2021/03/12 10:40:54;;;;;;;13.57;9.57;;;;;;;6.02;75.98;98857.52;124556;1105;104156;-81
2021/03/12 10:43:30;;;;;;;13.18;8.95;;;;;;;5.99;75.83;98861.97;124542;1109;102840;-80
2021/03/12 10:46:04;;;;;;;11.77;7.87;;;;;;;5.96;76.59;98856.91;124542;1106;104226;-80
2021/03/12 10:48:42;;;;;;;15.73;8.03;;;;;;;6.04;76.84;98863.48;124560;1106;104206;-79
2021/03/12 10:51:17;;;;;;;11.83;7.30;;;;;;;6.23;76.67;98865.41;124549;1105;104175;-79
2021/03/12 10:53:47;;;;;;;9.63;6.10;;;;;;;6.40;76.29;98857.87;124526;1109;104258;-79
2021/03/12 10:56:15;;;;;;;9.97;5.90;;;;;;;6.53;75.29;98859.10;124577;1106;104123;-79
2021/03/12 10:58:44;;;;;;;10.07;6.10;;;;;;;6.78;75.70;98858.16;124542;1106;104201;-79
2021/03/12 11:01:26;;;;;;;9.07;5.70;;;;;;;7.24;75.43;98860.63;124581;1106;104838;-79
2021/03/12 11:03:56;;;;;;;9.17;6.07;;;;;;;7.69;74.93;98859.60;124509;1106;104218;-79
2021/03/12 11:06:29;;;;;;;11.83;6.00;;;;;;;8.02;74.04;98857.31;124480;1109;103945;-80
2021/03/12 11:08:57;;;;;;;12.47;6.80;;;;;;;8.15;73.32;98852.43;124538;1105;104137;-78
2021/03/12 11:11:26;;;;;;;11.40;6.40;;;;;;;8.24;72.24;98859.80;124464;1105;105360;-79
2021/03/12 11:13:54;;;;;;;10.83;6.37;;;;;;;8.29;72.09;98851.82;124529;1105;104147;-79
2021/03/12 11:16:21;;;;;;;11.73;7.17;;;;;;;8.49;71.88;98856.98;124517;1109;104158;-78
2021/03/12 11:18:49;;;;;;;14.10;7.90;;;;;;;8.60;70.97;98851.27;124676;1106;104299;-79
2021/03/12 11:21:16;;;;;;;11.20;7.10;;;;;;;8.64;70.39;98845.05;124788;1105;104102;-79
2021/03/12 11:23:45;;;;;;;11.27;7.10;;;;;;;8.61;70.32;98859.00;124583;1105;103388;-79
2021/03/12 11:26:14;;;;;;;10.17;6.33;;;;;;;8.74;70.35;98862.72;124611;1109;103032;-78
2021/03/12 11:28:41;;;;;;;10.53;6.90;;;;;;;9.07;70.53;98860.28;124533;1109;104218;-79
2021/03/12 11:31:10;;;;;;;11.53;6.97;;;;;;;9.51;70.26;98848.61;124529;1105;104258;-78
2021/03/12 11:33:38;;;;;;;9.20;6.93;;;;;;;9.84;69.32;98857.32;124485;1109;104421;-79
2021/03/12 11:36:07;;;;;;;10.43;6.57;;;;;;;9.97;68.82;98850.56;124600;1106;104255;-80
2021/03/12 11:38:35;;;;;;;8.33;5.90;;;;;;;9.94;67.04;98852.50;124530;1106;104272;-80
2021/03/12 11:41:03;;;;;;;9.60;6.40;;;;;;;9.82;67.59;98850.51;124571;1109;102083;-79
2021/03/12 11:43:30;;;;;;;13.33;7.23;;;;;;;9.59;67.21;98862.09;124601;1105;104278;-79
2021/03/12 11:45:58;;;;;;;11.30;7.10;;;;;;;9.29;67.53;98867.05;124489;1106;104166;-79